Portada
METAR-TAF:

METAR-TAF

Aeroports :

Okayama, Japó

latitud: 34-45N, longitud: 133-51E, altitud: 241 m

Observació

L'informe es va fer fa 9 hores i 13 minuts, a les 12:00 UTC
Vent 4 kt del Sud-Est, variant entre Est/Sud-Est i Sud
Temperatura 27°C
Humitat 84%
Pressió 1013 hPa
Visibilitat 10 km o més
Escasses núvols a una alçada de 2000 ft
Núvols disperses a una alçada de 8000 ft
Cel ennuvolat a una alçada de 12000 ft

METAR: RJOB 091200Z 14004KT 110V170 9999 FEW020 SCT080 BKN120 27/24 Q1013

Hora: 06:13 (21:13 UTC)

Pronòstic

L'informe es va fer fa 4 hores i 4 minuts, a les 17:09 UTC
Pronòstic vàlid del 09 a les 18 UTC al 11 a les 00 UTC
Vent 5 kt del Est/Nord-Est
Visibilitat 10 km o més
Escasses núvols a una alçada de 1500 ft
Núvols disperses a una alçada de 4500 ft
Evolucionant progressivament
l' 10 a les 21 UTC al 11 a les 00 UTC
Vent 6 kt del Sud-Oest

TAF: RJOB 091709Z 0918/1100 07005KT 9999 FEW015 SCT045 BECMG 1021/1100 22006KT

Observacions i pronòstics meteorològics de més de 4000 aeroports (METAR i TAF).

Les estacions disponibles són els punts grocs i vermells al mapa.

Posi el ratolí al punt desitjat per veure el nom de l'estació.

Feu clic per veure les observacions i els pronòstics meteorològics.

Per canviar el mapa: feu clic els botons verds amb una creu de color negre per apropar; al botó verd amb un guió per allunyar la imatge; o en les fletxes verdes per a mapes adjacents.


METAR-TAF: